sensor_id;sensor_type;location;lat;lon;timestamp;temperature;humidity
3727;DHT22;1879;45.876;12.300;2023-02-03T00:01:08;3.50;99.90
3727;DHT22;1879;45.876;12.300;2023-02-03T00:03:35;3.50;99.90
3727;DHT22;1879;45.876;12.300;2023-02-03T00:06:03;3.50;99.90
3727;DHT22;1879;45.876;12.300;2023-02-03T00:08:30;3.50;99.90
3727;DHT22;1879;45.876;12.300;2023-02-03T00:10:58;3.50;99.90
3727;DHT22;1879;45.876;12.300;2023-02-03T00:13:25;3.60;99.90
3727;DHT22;1879;45.876;12.300;2023-02-03T00:15:52;3.60;99.90
3727;DHT22;1879;45.876;12.300;2023-02-03T00:18:20;3.50;99.90
3727;DHT22;1879;45.876;12.300;2023-02-03T00:20:47;3.50;99.90
3727;DHT22;1879;45.876;12.300;2023-02-03T00:23:14;3.60;99.90
3727;DHT22;1879;45.876;12.300;2023-02-03T00:25:41;3.60;99.90
3727;DHT22;1879;45.876;12.300;2023-02-03T00:28:08;3.60;99.90
3727;DHT22;1879;45.876;12.300;2023-02-03T00:30:35;3.50;99.90
3727;DHT22;1879;45.876;12.300;2023-02-03T00:33:03;3.50;99.90
3727;DHT22;1879;45.876;12.300;2023-02-03T00:35:31;3.30;99.90
3727;DHT22;1879;45.876;12.300;2023-02-03T00:37:58;3.30;99.90
3727;DHT22;1879;45.876;12.300;2023-02-03T00:40:26;3.30;99.90
3727;DHT22;1879;45.876;12.300;2023-02-03T00:42:54;3.20;99.90
3727;DHT22;1879;45.876;12.300;2023-02-03T00:45:21;3.00;99.90
3727;DHT22;1879;45.876;12.300;2023-02-03T00:47:48;3.00;99.90
3727;DHT22;1879;45.876;12.300;2023-02-03T00:50:15;3.10;99.90
3727;DHT22;1879;45.876;12.300;2023-02-03T00:52:44;3.20;99.90
3727;DHT22;1879;45.876;12.300;2023-02-03T00:55:11;3.20;99.90
3727;DHT22;1879;45.876;12.300;2023-02-03T00:57:37;3.20;99.90
3727;DHT22;1879;45.876;12.300;2023-02-03T01:00:06;3.10;99.90
3727;DHT22;1879;45.876;12.300;2023-02-03T01:02:33;3.10;99.90
3727;DHT22;1879;45.876;12.300;2023-02-03T01:05:00;3.20;99.90
3727;DHT22;1879;45.876;12.300;2023-02-03T01:07:30;3.10;99.90
3727;DHT22;1879;45.876;12.300;2023-02-03T01:09:58;3.10;99.90
3727;DHT22;1879;45.876;12.300;2023-02-03T01:12:28;3.00;99.90
3727;DHT22;1879;45.876;12.300;2023-02-03T01:14:55;2.90;99.90
3727;DHT22;1879;45.876;12.300;2023-02-03T01:17:22;2.90;99.90
3727;DHT22;1879;45.876;12.300;2023-02-03T01:19:49;2.90;99.90
3727;DHT22;1879;45.876;12.300;2023-02-03T01:22:17;2.80;99.90
3727;DHT22;1879;45.876;12.300;2023-02-03T01:24:44;2.80;99.90
3727;DHT22;1879;45.876;12.300;2023-02-03T01:27:12;2.80;99.90
3727;DHT22;1879;45.876;12.300;2023-02-03T01:29:39;2.90;99.90
3727;DHT22;1879;45.876;12.300;2023-02-03T01:32:06;2.90;99.90
3727;DHT22;1879;45.876;12.300;2023-02-03T01:34:33;2.90;99.90
3727;DHT22;1879;45.876;12.300;2023-02-03T01:37:00;2.90;99.90
3727;DHT22;1879;45.876;12.300;2023-02-03T01:39:26;2.90;99.90
3727;DHT22;1879;45.876;12.300;2023-02-03T01:41:55;2.90;99.90
3727;DHT22;1879;45.876;12.300;2023-02-03T01:44:49;2.90;99.90
3727;DHT22;1879;45.876;12.300;2023-02-03T01:47:27;2.90;99.90
3727;DHT22;1879;45.876;12.300;2023-02-03T01:50:02;2.80;99.90
3727;DHT22;1879;45.876;12.300;2023-02-03T01:52:29;2.80;99.90
3727;DHT22;1879;45.876;12.300;2023-02-03T01:55:00;2.80;99.90
3727;DHT22;1879;45.876;12.300;2023-02-03T01:57:32;2.90;99.90
3727;DHT22;1879;45.876;12.300;2023-02-03T02:00:03;2.90;99.90
3727;DHT22;1879;45.876;12.300;2023-02-03T02:02:31;2.80;99.90
3727;DHT22;1879;45.876;12.300;2023-02-03T02:05:03;2.80;99.90
3727;DHT22;1879;45.876;12.300;2023-02-03T02:07:33;2.70;99.90
3727;DHT22;1879;45.876;12.300;2023-02-03T02:10:00;2.70;99.90
3727;DHT22;1879;45.876;12.300;2023-02-03T02:12:27;2.70;99.90
3727;DHT22;1879;45.876;12.300;2023-02-03T02:14:55;2.60;99.90
3727;DHT22;1879;45.876;12.300;2023-02-03T02:20:45;2.70;99.90
3727;DHT22;1879;45.876;12.300;2023-02-03T02:26:41;2.70;99.90
3727;DHT22;1879;45.876;12.300;2023-02-03T02:32:33;2.80;99.90
3727;DHT22;1879;45.876;12.300;2023-02-03T02:35:08;2.80;99.90
3727;DHT22;1879;45.876;12.300;2023-02-03T02:37:46;2.70;99.90
3727;DHT22;1879;45.876;12.300;2023-02-03T02:40:20;2.70;99.90
3727;DHT22;1879;45.876;12.300;2023-02-03T02:43:00;2.70;99.90
3727;DHT22;1879;45.876;12.300;2023-02-03T02:45:30;2.60;99.90
3727;DHT22;1879;45.876;12.300;2023-02-03T02:48:03;2.50;99.90
3727;DHT22;1879;45.876;12.300;2023-02-03T02:50:36;2.50;99.90
3727;DHT22;1879;45.876;12.300;2023-02-03T02:53:05;2.50;99.90
3727;DHT22;1879;45.876;12.300;2023-02-03T02:55:34;2.40;99.90
3727;DHT22;1879;45.876;12.300;2023-02-03T02:58:05;2.30;99.90
3727;DHT22;1879;45.876;12.300;2023-02-03T03:00:34;2.30;99.90
3727;DHT22;1879;45.876;12.300;2023-02-03T03:03:14;2.40;99.90
3727;DHT22;1879;45.876;12.300;2023-02-03T03:05:45;2.40;99.90
3727;DHT22;1879;45.876;12.300;2023-02-03T03:08:14;2.50;99.90
3727;DHT22;1879;45.876;12.300;2023-02-03T03:10:42;2.50;99.90
3727;DHT22;1879;45.876;12.300;2023-02-03T03:13:14;2.50;99.90
3727;DHT22;1879;45.876;12.300;2023-02-03T03:15:43;2.50;99.90
3727;DHT22;1879;45.876;12.300;2023-02-03T03:18:15;2.50;99.90
3727;DHT22;1879;45.876;12.300;2023-02-03T03:20:45;2.50;99.90
3727;DHT22;1879;45.876;12.300;2023-02-03T03:23:19;2.40;99.90
3727;DHT22;1879;45.876;12.300;2023-02-03T03:25:52;2.40;99.90
3727;DHT22;1879;45.876;12.300;2023-02-03T03:28:23;2.30;99.90
3727;DHT22;1879;45.876;12.300;2023-02-03T03:30:51;2.40;99.90
3727;DHT22;1879;45.876;12.300;2023-02-03T03:33:21;2.40;99.90
3727;DHT22;1879;45.876;12.300;2023-02-03T03:35:53;2.50;99.90
3727;DHT22;1879;45.876;12.300;2023-02-03T03:38:23;2.60;99.90
3727;DHT22;1879;45.876;12.300;2023-02-03T03:41:02;2.60;99.90
3727;DHT22;1879;45.876;12.300;2023-02-03T03:43:32;2.70;99.90
3727;DHT22;1879;45.876;12.300;2023-02-03T03:46:05;2.70;99.90
3727;DHT22;1879;45.876;12.300;2023-02-03T03:48:39;2.60;99.90
3727;DHT22;1879;45.876;12.300;2023-02-03T03:51:15;2.50;99.90
3727;DHT22;1879;45.876;12.300;2023-02-03T03:53:46;2.50;99.90
3727;DHT22;1879;45.876;12.300;2023-02-03T03:56:18;2.40;99.90
3727;DHT22;1879;45.876;12.300;2023-02-03T03:58:47;2.40;99.90
3727;DHT22;1879;45.876;12.300;2023-02-03T04:01:16;2.40;99.90
3727;DHT22;1879;45.876;12.300;2023-02-03T04:03:47;2.40;99.90
3727;DHT22;1879;45.876;12.300;2023-02-03T04:06:15;2.40;99.90
3727;DHT22;1879;45.876;12.300;2023-02-03T04:08:42;2.40;99.90
3727;DHT22;1879;45.876;12.300;2023-02-03T04:11:09;2.40;99.90
3727;DHT22;1879;45.876;12.300;2023-02-03T04:13:35;2.40;99.90
3727;DHT22;1879;45.876;12.300;2023-02-03T04:16:02;2.30;99.90
3727;DHT22;1879;45.876;12.300;2023-02-03T04:18:29;2.30;99.90
3727;DHT22;1879;45.876;12.300;2023-02-03T04:20:58;2.30;99.90
3727;DHT22;1879;45.876;12.300;2023-02-03T04:23:25;2.40;99.90
3727;DHT22;1879;45.876;12.300;2023-02-03T04:25:52;2.40;99.90
3727;DHT22;1879;45.876;12.300;2023-02-03T04:28:18;2.40;99.90
3727;DHT22;1879;45.876;12.300;2023-02-03T04:30:45;2.40;99.90
3727;DHT22;1879;45.876;12.300;2023-02-03T04:33:12;2.50;99.90
3727;DHT22;1879;45.876;12.300;2023-02-03T04:35:39;2.50;99.90
3727;DHT22;1879;45.876;12.300;2023-02-03T04:38:07;2.30;99.90
3727;DHT22;1879;45.876;12.300;2023-02-03T04:40:34;2.20;99.90
3727;DHT22;1879;45.876;12.300;2023-02-03T04:43:05;2.10;99.90
3727;DHT22;1879;45.876;12.300;2023-02-03T04:45:33;2.10;99.90
3727;DHT22;1879;45.876;12.300;2023-02-03T04:48:00;2.20;99.90
3727;DHT22;1879;45.876;12.300;2023-02-03T04:50:28;2.20;99.90
3727;DHT22;1879;45.876;12.300;2023-02-03T04:52:55;2.20;99.90
3727;DHT22;1879;45.876;12.300;2023-02-03T04:55:24;2.10;99.90
3727;DHT22;1879;45.876;12.300;2023-02-03T04:57:54;2.10;99.90
3727;DHT22;1879;45.876;12.300;2023-02-03T05:00:21;2.00;99.90
3727;DHT22;1879;45.876;12.300;2023-02-03T05:02:48;2.10;99.90
3727;DHT22;1879;45.876;12.300;2023-02-03T05:05:15;2.10;99.90
3727;DHT22;1879;45.876;12.300;2023-02-03T05:07:42;2.10;99.90
3727;DHT22;1879;45.876;12.300;2023-02-03T05:10:09;2.20;99.90
3727;DHT22;1879;45.876;12.300;2023-02-03T05:12:37;2.30;99.90
3727;DHT22;1879;45.876;12.300;2023-02-03T05:15:05;2.40;99.90
3727;DHT22;1879;45.876;12.300;2023-02-03T05:17:32;2.50;99.90
3727;DHT22;1879;45.876;12.300;2023-02-03T05:20:04;2.50;99.90
3727;DHT22;1879;45.876;12.300;2023-02-03T05:22:31;2.60;99.90
3727;DHT22;1879;45.876;12.300;2023-02-03T05:24:59;2.60;99.90
3727;DHT22;1879;45.876;12.300;2023-02-03T05:27:26;2.60;99.90
3727;DHT22;1879;45.876;12.300;2023-02-03T05:29:55;2.60;99.90
3727;DHT22;1879;45.876;12.300;2023-02-03T05:32:22;2.70;99.90
3727;DHT22;1879;45.876;12.300;2023-02-03T05:34:49;2.70;99.90
3727;DHT22;1879;45.876;12.300;2023-02-03T05:37:15;2.70;99.90
3727;DHT22;1879;45.876;12.300;2023-02-03T05:39:42;2.80;99.90
3727;DHT22;1879;45.876;12.300;2023-02-03T05:42:09;2.90;99.90
3727;DHT22;1879;45.876;12.300;2023-02-03T05:44:35;2.80;99.90
3727;DHT22;1879;45.876;12.300;2023-02-03T05:47:04;2.70;99.90
3727;DHT22;1879;45.876;12.300;2023-02-03T05:49:30;2.60;99.90
3727;DHT22;1879;45.876;12.300;2023-02-03T05:51:57;2.50;99.90
3727;DHT22;1879;45.876;12.300;2023-02-03T05:54:24;2.50;99.90
3727;DHT22;1879;45.876;12.300;2023-02-03T05:56:51;2.40;99.90
3727;DHT22;1879;45.876;12.300;2023-02-03T05:59:18;2.30;99.90
3727;DHT22;1879;45.876;12.300;2023-02-03T06:01:45;2.30;99.90
3727;DHT22;1879;45.876;12.300;2023-02-03T06:04:13;2.20;99.90
3727;DHT22;1879;45.876;12.300;2023-02-03T06:06:40;2.20;99.90
3727;DHT22;1879;45.876;12.300;2023-02-03T06:09:07;2.30;99.90
3727;DHT22;1879;45.876;12.300;2023-02-03T06:11:35;2.20;99.90
3727;DHT22;1879;45.876;12.300;2023-02-03T06:14:02;2.20;99.90
3727;DHT22;1879;45.876;12.300;2023-02-03T06:16:30;2.20;99.90
3727;DHT22;1879;45.876;12.300;2023-02-03T06:18:57;2.20;99.90
3727;DHT22;1879;45.876;12.300;2023-02-03T06:21:26;2.10;99.90
3727;DHT22;1879;45.876;12.300;2023-02-03T06:23:53;2.10;99.90
3727;DHT22;1879;45.876;12.300;2023-02-03T06:26:21;2.10;99.90
3727;DHT22;1879;45.876;12.300;2023-02-03T06:28:48;2.10;99.90
3727;DHT22;1879;45.876;12.300;2023-02-03T06:31:15;2.10;99.90
3727;DHT22;1879;45.876;12.300;2023-02-03T06:33:42;2.10;99.90
3727;DHT22;1879;45.876;12.300;2023-02-03T06:36:09;2.10;99.90
3727;DHT22;1879;45.876;12.300;2023-02-03T06:38:37;2.10;99.90
3727;DHT22;1879;45.876;12.300;2023-02-03T06:41:04;2.20;99.90
3727;DHT22;1879;45.876;12.300;2023-02-03T06:43:31;2.20;99.90
3727;DHT22;1879;45.876;12.300;2023-02-03T06:45:59;2.20;99.90
3727;DHT22;1879;45.876;12.300;2023-02-03T06:48:26;2.20;99.90
3727;DHT22;1879;45.876;12.300;2023-02-03T06:50:53;2.30;99.90
3727;DHT22;1879;45.876;12.300;2023-02-03T06:53:20;2.30;99.90
3727;DHT22;1879;45.876;12.300;2023-02-03T06:55:48;2.30;99.90
3727;DHT22;1879;45.876;12.300;2023-02-03T06:58:15;2.40;99.90
3727;DHT22;1879;45.876;12.300;2023-02-03T07:00:42;2.50;99.90
3727;DHT22;1879;45.876;12.300;2023-02-03T07:03:09;2.50;99.90
3727;DHT22;1879;45.876;12.300;2023-02-03T07:05:36;2.50;99.90
3727;DHT22;1879;45.876;12.300;2023-02-03T07:08:05;2.50;99.90
3727;DHT22;1879;45.876;12.300;2023-02-03T07:10:32;2.50;99.90
3727;DHT22;1879;45.876;12.300;2023-02-03T07:13:04;2.50;99.90
3727;DHT22;1879;45.876;12.300;2023-02-03T07:15:31;2.60;99.90
3727;DHT22;1879;45.876;12.300;2023-02-03T07:17:58;2.70;99.90
3727;DHT22;1879;45.876;12.300;2023-02-03T07:20:25;2.80;99.90
3727;DHT22;1879;45.876;12.300;2023-02-03T07:22:53;2.90;99.90
3727;DHT22;1879;45.876;12.300;2023-02-03T07:25:21;2.90;99.90
3727;DHT22;1879;45.876;12.300;2023-02-03T07:27:48;3.00;99.90
3727;DHT22;1879;45.876;12.300;2023-02-03T07:30:17;3.10;99.90
3727;DHT22;1879;45.876;12.300;2023-02-03T07:32:47;3.10;99.90
3727;DHT22;1879;45.876;12.300;2023-02-03T07:35:14;3.20;99.90
3727;DHT22;1879;45.876;12.300;2023-02-03T07:37:41;3.30;99.90
3727;DHT22;1879;45.876;12.300;2023-02-03T07:40:09;3.30;99.90
3727;DHT22;1879;45.876;12.300;2023-02-03T07:42:39;3.30;99.90
3727;DHT22;1879;45.876;12.300;2023-02-03T07:45:08;3.30;99.90
3727;DHT22;1879;45.876;12.300;2023-02-03T07:47:36;3.40;99.90
3727;DHT22;1879;45.876;12.300;2023-02-03T07:50:04;3.30;99.90
3727;DHT22;1879;45.876;12.300;2023-02-03T07:52:31;3.30;99.90
3727;DHT22;1879;45.876;12.300;2023-02-03T07:54:58;3.30;99.90
3727;DHT22;1879;45.876;12.300;2023-02-03T07:57:25;3.30;99.90
3727;DHT22;1879;45.876;12.300;2023-02-03T07:59:52;3.40;99.90
3727;DHT22;1879;45.876;12.300;2023-02-03T08:02:19;3.40;99.90
3727;DHT22;1879;45.876;12.300;2023-02-03T08:04:47;3.60;99.90
3727;DHT22;1879;45.876;12.300;2023-02-03T08:07:14;3.70;99.90
3727;DHT22;1879;45.876;12.300;2023-02-03T08:09:41;3.80;99.90
3727;DHT22;1879;45.876;12.300;2023-02-03T08:12:08;4.00;99.90
3727;DHT22;1879;45.876;12.300;2023-02-03T08:14:35;4.10;99.90
3727;DHT22;1879;45.876;12.300;2023-02-03T08:17:02;4.30;99.90
3727;DHT22;1879;45.876;12.300;2023-02-03T08:19:29;4.40;99.90
3727;DHT22;1879;45.876;12.300;2023-02-03T08:21:57;4.50;99.90
3727;DHT22;1879;45.876;12.300;2023-02-03T08:24:24;4.70;99.90
3727;DHT22;1879;45.876;12.300;2023-02-03T08:26:51;4.80;99.90
3727;DHT22;1879;45.876;12.300;2023-02-03T08:29:19;5.00;99.90
3727;DHT22;1879;45.876;12.300;2023-02-03T08:31:46;5.20;99.90
3727;DHT22;1879;45.876;12.300;2023-02-03T08:34:13;5.30;99.90
3727;DHT22;1879;45.876;12.300;2023-02-03T08:36:40;5.40;99.90
3727;DHT22;1879;45.876;12.300;2023-02-03T08:39:10;5.60;99.90
3727;DHT22;1879;45.876;12.300;2023-02-03T08:41:37;5.70;99.90
3727;DHT22;1879;45.876;12.300;2023-02-03T08:44:04;5.90;99.90
3727;DHT22;1879;45.876;12.300;2023-02-03T08:46:31;6.00;99.90
3727;DHT22;1879;45.876;12.300;2023-02-03T08:48:59;6.10;99.90
3727;DHT22;1879;45.876;12.300;2023-02-03T08:51:27;6.20;99.90
3727;DHT22;1879;45.876;12.300;2023-02-03T08:53:54;6.40;99.90
3727;DHT22;1879;45.876;12.300;2023-02-03T08:56:23;6.60;99.90
3727;DHT22;1879;45.876;12.300;2023-02-03T08:58:51;6.80;99.90
3727;DHT22;1879;45.876;12.300;2023-02-03T09:01:18;7.00;99.90
3727;DHT22;1879;45.876;12.300;2023-02-03T09:03:45;7.20;99.90
3727;DHT22;1879;45.876;12.300;2023-02-03T09:06:12;7.30;99.90
3727;DHT22;1879;45.876;12.300;2023-02-03T09:08:41;7.60;99.90
3727;DHT22;1879;45.876;12.300;2023-02-03T09:11:09;7.70;99.90
3727;DHT22;1879;45.876;12.300;2023-02-03T09:13:37;8.00;99.90
3727;DHT22;1879;45.876;12.300;2023-02-03T09:16:05;8.40;99.90
3727;DHT22;1879;45.876;12.300;2023-02-03T09:18:32;8.50;99.90
3727;DHT22;1879;45.876;12.300;2023-02-03T09:21:00;8.50;99.90
3727;DHT22;1879;45.876;12.300;2023-02-03T09:23:27;8.40;99.90
3727;DHT22;1879;45.876;12.300;2023-02-03T09:25:54;8.30;99.90
3727;DHT22;1879;45.876;12.300;2023-02-03T09:28:21;8.20;99.90
3727;DHT22;1879;45.876;12.300;2023-02-03T09:30:50;8.10;99.90
3727;DHT22;1879;45.876;12.300;2023-02-03T09:33:17;8.10;99.90
3727;DHT22;1879;45.876;12.300;2023-02-03T09:35:51;8.10;99.90
3727;DHT22;1879;45.876;12.300;2023-02-03T09:38:18;8.10;99.90
3727;DHT22;1879;45.876;12.300;2023-02-03T09:40:50;8.20;99.90
3727;DHT22;1879;45.876;12.300;2023-02-03T09:43:28;8.20;99.90
3727;DHT22;1879;45.876;12.300;2023-02-03T09:46:02;8.30;99.90
3727;DHT22;1879;45.876;12.300;2023-02-03T09:48:35;8.30;99.90
3727;DHT22;1879;45.876;12.300;2023-02-03T09:51:05;8.40;99.90
3727;DHT22;1879;45.876;12.300;2023-02-03T09:53:38;8.50;99.90
3727;DHT22;1879;45.876;12.300;2023-02-03T09:56:16;8.60;99.90
3727;DHT22;1879;45.876;12.300;2023-02-03T09:58:44;8.70;99.90
3727;DHT22;1879;45.876;12.300;2023-02-03T10:01:13;8.80;99.90
3727;DHT22;1879;45.876;12.300;2023-02-03T10:03:45;8.90;99.90
3727;DHT22;1879;45.876;12.300;2023-02-03T10:06:21;9.00;99.90
3727;DHT22;1879;45.876;12.300;2023-02-03T10:09:20;9.10;99.90
3727;DHT22;1879;45.876;12.300;2023-02-03T10:12:11;9.20;99.90
3727;DHT22;1879;45.876;12.300;2023-02-03T10:14:53;9.30;99.90
3727;DHT22;1879;45.876;12.300;2023-02-03T10:17:29;9.50;99.90
3727;DHT22;1879;45.876;12.300;2023-02-03T10:20:02;9.60;99.90
3727;DHT22;1879;45.876;12.300;2023-02-03T10:22:33;9.80;99.90
3727;DHT22;1879;45.876;12.300;2023-02-03T10:25:06;9.90;99.90
3727;DHT22;1879;45.876;12.300;2023-02-03T10:27:35;10.00;99.90
3727;DHT22;1879;45.876;12.300;2023-02-03T10:30:04;10.00;99.50
3727;DHT22;1879;45.876;12.300;2023-02-03T10:32:33;10.10;99.20
3727;DHT22;1879;45.876;12.300;2023-02-03T10:35:09;10.30;99.00
3727;DHT22;1879;45.876;12.300;2023-02-03T10:37:41;10.30;98.30
3727;DHT22;1879;45.876;12.300;2023-02-03T10:40:12;10.40;97.60
3727;DHT22;1879;45.876;12.300;2023-02-03T10:42:39;10.60;97.30
3727;DHT22;1879;45.876;12.300;2023-02-03T10:45:25;10.70;97.00
3727;DHT22;1879;45.876;12.300;2023-02-03T10:47:57;10.90;96.60
3727;DHT22;1879;45.876;12.300;2023-02-03T10:50:26;11.00;96.30
3727;DHT22;1879;45.876;12.300;2023-02-03T10:53:19;11.10;96.20
3727;DHT22;1879;45.876;12.300;2023-02-03T10:55:48;11.20;95.90
3727;DHT22;1879;45.876;12.300;2023-02-03T10:58:18;11.20;96.20
3727;DHT22;1879;45.876;12.300;2023-02-03T11:00:53;11.30;96.00
3727;DHT22;1879;45.876;12.300;2023-02-03T11:03:24;11.30;95.70
3727;DHT22;1879;45.876;12.300;2023-02-03T11:06:10;11.40;95.30
3727;DHT22;1879;45.876;12.300;2023-02-03T11:08:38;11.50;95.00
3727;DHT22;1879;45.876;12.300;2023-02-03T11:11:07;11.70;95.50
3727;DHT22;1879;45.876;12.300;2023-02-03T11:13:35;11.80;96.00
3727;DHT22;1879;45.876;12.300;2023-02-03T11:16:04;11.80;96.30
3727;DHT22;1879;45.876;12.300;2023-02-03T11:18:43;11.90;96.30
3727;DHT22;1879;45.876;12.300;2023-02-03T11:21:16;12.00;96.10
3727;DHT22;1879;45.876;12.300;2023-02-03T11:23:56;12.10;96.10
3727;DHT22;1879;45.876;12.300;2023-02-03T11:26:28;12.30;96.10
3727;DHT22;1879;45.876;12.300;2023-02-03T11:28:58;12.50;96.00
3727;DHT22;1879;45.876;12.300;2023-02-03T11:31:27;12.60;95.80
3727;DHT22;1879;45.876;12.300;2023-02-03T11:33:59;12.80;95.40
3727;DHT22;1879;45.876;12.300;2023-02-03T11:36:31;13.00;95.20
3727;DHT22;1879;45.876;12.300;2023-02-03T11:39:26;13.20;94.70
3727;DHT22;1879;45.876;12.300;2023-02-03T11:41:53;13.90;94.00
3727;DHT22;1879;45.876;12.300;2023-02-03T11:46:54;15.80;92.00
3727;DHT22;1879;45.876;12.300;2023-02-03T11:53:05;18.00;83.40
3727;DHT22;1879;45.876;12.300;2023-02-03T11:55:47;19.10;79.40
3727;DHT22;1879;45.876;12.300;2023-02-03T12:01:11;20.40;69.50
3727;DHT22;1879;45.876;12.300;2023-02-03T12:03:59;20.90;67.70
3727;DHT22;1879;45.876;12.300;2023-02-03T12:09:47;21.40;62.40
3727;DHT22;1879;45.876;12.300;2023-02-03T12:12:27;21.10;59.60
3727;DHT22;1879;45.876;12.300;2023-02-03T12:15:05;20.60;59.50
3727;DHT22;1879;45.876;12.300;2023-02-03T12:17:48;20.30;61.40
3727;DHT22;1879;45.876;12.300;2023-02-03T12:20:44;20.60;60.60
3727;DHT22;1879;45.876;12.300;2023-02-03T12:23:24;21.00;60.50
3727;DHT22;1879;45.876;12.300;2023-02-03T12:26:09;21.80;59.70
3727;DHT22;1879;45.876;12.300;2023-02-03T12:28:45;22.20;58.50
3727;DHT22;1879;45.876;12.300;2023-02-03T12:31:20;22.30;57.10
3727;DHT22;1879;45.876;12.300;2023-02-03T12:33:51;22.60;57.40
3727;DHT22;1879;45.876;12.300;2023-02-03T12:36:22;22.40;55.90
3727;DHT22;1879;45.876;12.300;2023-02-03T12:38:55;22.80;56.40
3727;DHT22;1879;45.876;12.300;2023-02-03T12:41:33;22.70;53.80
3727;DHT22;1879;45.876;12.300;2023-02-03T12:44:03;22.30;53.70
3727;DHT22;1879;45.876;12.300;2023-02-03T12:46:35;22.70;54.70
3727;DHT22;1879;45.876;12.300;2023-02-03T12:49:10;22.80;54.00
3727;DHT22;1879;45.876;12.300;2023-02-03T12:51:42;23.50;54.40
3727;DHT22;1879;45.876;12.300;2023-02-03T12:54:24;24.10;52.40
3727;DHT22;1879;45.876;12.300;2023-02-03T12:57:03;23.30;50.70
3727;DHT22;1879;45.876;12.300;2023-02-03T12:59:32;22.80;52.00
3727;DHT22;1879;45.876;12.300;2023-02-03T13:02:03;22.70;52.40
3727;DHT22;1879;45.876;12.300;2023-02-03T13:04:42;22.40;52.90
3727;DHT22;1879;45.876;12.300;2023-02-03T13:07:15;22.30;53.20
3727;DHT22;1879;45.876;12.300;2023-02-03T13:09:51;22.30;52.70
3727;DHT22;1879;45.876;12.300;2023-02-03T13:12:28;23.20;54.00
3727;DHT22;1879;45.876;12.300;2023-02-03T13:15:01;23.90;52.30
3727;DHT22;1879;45.876;12.300;2023-02-03T13:17:37;23.10;50.00
3727;DHT22;1879;45.876;12.300;2023-02-03T13:20:14;22.60;50.80
3727;DHT22;1879;45.876;12.300;2023-02-03T13:22:45;22.60;51.60
3727;DHT22;1879;45.876;12.300;2023-02-03T13:25:18;22.00;51.60
3727;DHT22;1879;45.876;12.300;2023-02-03T13:27:53;21.80;51.50
3727;DHT22;1879;45.876;12.300;2023-02-03T13:30:45;21.30;52.20
3727;DHT22;1879;45.876;12.300;2023-02-03T13:33:46;21.20;52.20
3727;DHT22;1879;45.876;12.300;2023-02-03T13:36:43;21.50;52.50
3727;DHT22;1879;45.876;12.300;2023-02-03T13:42:22;21.30;52.80
3727;DHT22;1879;45.876;12.300;2023-02-03T13:44:55;21.20;53.10
3727;DHT22;1879;45.876;12.300;2023-02-03T13:47:26;21.50;53.90
3727;DHT22;1879;45.876;12.300;2023-02-03T13:49:57;21.10;52.40
3727;DHT22;1879;45.876;12.300;2023-02-03T13:52:29;20.60;53.60
3727;DHT22;1879;45.876;12.300;2023-02-03T13:54:59;20.60;54.00
3727;DHT22;1879;45.876;12.300;2023-02-03T13:57:32;20.60;53.90
3727;DHT22;1879;45.876;12.300;2023-02-03T14:00:03;20.40;53.60
3727;DHT22;1879;45.876;12.300;2023-02-03T14:02:52;20.10;53.60
3727;DHT22;1879;45.876;12.300;2023-02-03T14:05:42;20.20;54.40
3727;DHT22;1879;45.876;12.300;2023-02-03T14:11:40;19.80;53.90
3727;DHT22;1879;45.876;12.300;2023-02-03T14:14:40;19.10;54.80
3727;DHT22;1879;45.876;12.300;2023-02-03T14:20:36;17.80;56.70
3727;DHT22;1879;45.876;12.300;2023-02-03T14:23:09;18.10;58.00
3727;DHT22;1879;45.876;12.300;2023-02-03T14:25:40;18.00;57.80
3727;DHT22;1879;45.876;12.300;2023-02-03T14:28:11;17.70;58.30
3727;DHT22;1879;45.876;12.300;2023-02-03T14:31:05;17.80;58.90
3727;DHT22;1879;45.876;12.300;2023-02-03T14:36:48;16.90;59.00
3727;DHT22;1879;45.876;12.300;2023-02-03T14:39:46;16.20;60.00
3727;DHT22;1879;45.876;12.300;2023-02-03T14:42:31;15.50;61.00
3727;DHT22;1879;45.876;12.300;2023-02-03T14:45:10;15.10;62.50
3727;DHT22;1879;45.876;12.300;2023-02-03T14:47:53;14.90;63.40
3727;DHT22;1879;45.876;12.300;2023-02-03T14:50:36;15.00;64.50
3727;DHT22;1879;45.876;12.300;2023-02-03T14:53:22;14.80;65.10
3727;DHT22;1879;45.876;12.300;2023-02-03T14:56:01;15.10;65.90
3727;DHT22;1879;45.876;12.300;2023-02-03T14:58:34;15.20;65.30
3727;DHT22;1879;45.876;12.300;2023-02-03T15:01:03;15.40;65.80
3727;DHT22;1879;45.876;12.300;2023-02-03T15:03:32;15.50;65.20
3727;DHT22;1879;45.876;12.300;2023-02-03T15:06:03;15.20;64.90
3727;DHT22;1879;45.876;12.300;2023-02-03T15:08:37;15.20;65.80
3727;DHT22;1879;45.876;12.300;2023-02-03T15:11:31;15.20;66.30
3727;DHT22;1879;45.876;12.300;2023-02-03T15:14:16;15.10;66.50
3727;DHT22;1879;45.876;12.300;2023-02-03T15:16:44;15.00;67.20
3727;DHT22;1879;45.876;12.300;2023-02-03T15:19:16;14.70;67.30
3727;DHT22;1879;45.876;12.300;2023-02-03T15:21:44;14.40;68.30
3727;DHT22;1879;45.876;12.300;2023-02-03T15:24:17;14.10;69.10
3727;DHT22;1879;45.876;12.300;2023-02-03T15:26:48;13.80;70.40
3727;DHT22;1879;45.876;12.300;2023-02-03T15:29:21;13.50;72.20
3727;DHT22;1879;45.876;12.300;2023-02-03T15:31:53;13.20;73.10
3727;DHT22;1879;45.876;12.300;2023-02-03T15:34:25;13.00;74.40
3727;DHT22;1879;45.876;12.300;2023-02-03T15:36:56;12.90;76.10
3727;DHT22;1879;45.876;12.300;2023-02-03T15:39:38;12.70;77.60
3727;DHT22;1879;45.876;12.300;2023-02-03T15:42:13;12.40;80.50
3727;DHT22;1879;45.876;12.300;2023-02-03T15:44:47;12.20;83.10
3727;DHT22;1879;45.876;12.300;2023-02-03T15:47:22;12.00;85.80
3727;DHT22;1879;45.876;12.300;2023-02-03T15:49:57;11.90;89.60
3727;DHT22;1879;45.876;12.300;2023-02-03T15:52:26;11.80;91.70
3727;DHT22;1879;45.876;12.300;2023-02-03T15:55:02;11.60;92.80
3727;DHT22;1879;45.876;12.300;2023-02-03T15:57:33;11.50;94.90
3727;DHT22;1879;45.876;12.300;2023-02-03T16:00:08;11.30;95.20
3727;DHT22;1879;45.876;12.300;2023-02-03T16:02:41;11.30;96.60
3727;DHT22;1879;45.876;12.300;2023-02-03T16:05:20;11.30;97.30
3727;DHT22;1879;45.876;12.300;2023-02-03T16:07:48;11.20;98.30
3727;DHT22;1879;45.876;12.300;2023-02-03T16:10:28;11.20;98.20
3727;DHT22;1879;45.876;12.300;2023-02-03T16:13:18;11.10;99.90
3727;DHT22;1879;45.876;12.300;2023-02-03T16:16:00;10.90;99.90
3727;DHT22;1879;45.876;12.300;2023-02-03T16:18:28;10.80;99.90
3727;DHT22;1879;45.876;12.300;2023-02-03T16:20:55;10.70;99.90
3727;DHT22;1879;45.876;12.300;2023-02-03T16:23:23;10.60;99.90
3727;DHT22;1879;45.876;12.300;2023-02-03T16:26:04;10.60;99.90
3727;DHT22;1879;45.876;12.300;2023-02-03T16:28:32;10.40;99.90
3727;DHT22;1879;45.876;12.300;2023-02-03T16:31:17;10.30;99.90
3727;DHT22;1879;45.876;12.300;2023-02-03T16:34:11;10.20;99.90
3727;DHT22;1879;45.876;12.300;2023-02-03T16:36:56;10.00;99.90
3727;DHT22;1879;45.876;12.300;2023-02-03T16:39:40;9.90;99.90
3727;DHT22;1879;45.876;12.300;2023-02-03T16:42:35;9.70;99.90
3727;DHT22;1879;45.876;12.300;2023-02-03T16:45:19;9.70;99.90
3727;DHT22;1879;45.876;12.300;2023-02-03T16:48:04;9.60;99.90
3727;DHT22;1879;45.876;12.300;2023-02-03T16:50:49;9.50;99.90
3727;DHT22;1879;45.876;12.300;2023-02-03T16:53:18;9.50;99.90
3727;DHT22;1879;45.876;12.300;2023-02-03T16:55:45;9.40;99.90
3727;DHT22;1879;45.876;12.300;2023-02-03T16:58:14;9.40;99.90
3727;DHT22;1879;45.876;12.300;2023-02-03T17:00:43;9.30;99.90